This is the latest recevied weather packets stored in our database for station/object VE3GIF. If no packets are shown the sender has not sent any weather packets the latest 1 day(s).
| Time | Temp. | Humidity | Pressure | Rain* | Wind** | Luminosity | Snow |
|---|---|---|---|---|---|---|---|
| 1778108012 | 9.44° C | 58% | 1010.9 hPa | 0 mm | - | - | - |
| 1778107111 | 9.44° C | 60% | 1010.9 hPa | 0 mm | - | - | - |
| 1778106811 | 9.44° C | 59% | 1010.8 hPa | 0 mm | - | - | - |
| 1778105910 | 9.44° C | 58% | 1010.6 hPa | 0 mm | - | - | - |
| 1778104709 | 9.44° C | 58% | 1010.6 hPa | 0 mm | - | - | - |
| 1778102907 | 7.78° C | 66% | 1010.3 hPa | 0 mm | - | - | - |
| 1778102607 | 7.78° C | 66% | 1010.2 hPa | 0 mm | - | - | - |
| 1778101706 | 7.78° C | 68% | 1010 hPa | 0 mm | - | - | - |
| 1778100205 | 7.22° C | 72% | 1010 hPa | 0 mm | - | - | - |
| 1778096301 | 6.11° C | 83% | 1010.3 hPa | 0 mm | - | - | - |
| 1778095100 | 5.56° C | 86% | 1010.4 hPa | 0 mm | - | - | - |
| 1778086992 | 6.67° C | 91% | 1009.9 hPa | 0 mm | - | - | - |
| 1778084590 | 6.11° C | 91% | 1010 hPa | 0 mm | - | - | - |
| 1778079485 | 5.56° C | 91% | 1009.3 hPa | 0 mm | - | - | - |
| 1778078284 | 5.56° C | 91% | 1009.2 hPa | 0 mm | - | - | - |
| 1778077083 | 5.56° C | 91% | 1009.2 hPa | 0 mm | - | - | - |
| 1778076783 | 5.56° C | 91% | 1009.1 hPa | 0 mm | - | - | - |
| 1778076182 | 5.56° C | 91% | 1009.1 hPa | 0 mm | - | - | - |
| 1778075281 | 5.56° C | 91% | 1009.1 hPa | 0 mm | - | - | - |
| 1778074080 | 5.56° C | 91% | 1009.2 hPa | 0 mm | - | - | - |
| 1778073179 | 5.56° C | 91% | 1009 hPa | 0 mm | - | - | - |
| 1778072879 | 5.56° C | 91% | 1009 hPa | 0 mm | - | - | - |
| 1778071978 | 5.56° C | 91% | 1009.1 hPa | 0 mm | - | - | - |
| 1778071678 | 5.56° C | 91% | 1009.1 hPa | 0 mm | - | - | - |
| 1778070777 | 5.56° C | 91% | 1008.7 hPa | 0 mm | - | - | - |
* Rain latest hour (hover to see other rain measurements)
** Current wind speed in m/s (hover to see current wind gust speed)